Time;durP1;ratioP1;P1;durP2;ratioP2;P2;SDS_P1;SDS_P2;PMS_P1;PMS_P2;Temp;Humidity;BMP_temperature;BMP_pressure;BME280_temperature;BME280_humidity;BME280_pressure;Samples;Min_cycle;Max_cycle;Signal;HPM_P1;HPM_P2
2022/02/04 00:23:29;;;;;;;;;;;23.50;77.20;;;;;;5030707;28;20070;-58
2022/02/04 00:26:03;;;;;;;;;;;23.50;78.00;;;;;;5083561;28;20002;-47
2022/02/04 00:31:10;;;;;;;;;;;23.50;78.50;;;;;;5093380;28;19962;-52
2022/02/04 00:33:39;;;;;;;;;;;23.50;78.80;;;;;;5093155;28;20339;-52
2022/02/04 00:36:15;;;;;;;;;;;23.40;78.90;;;;;;5092987;28;20395;-58
2022/02/04 00:38:46;;;;;;;;;;;23.40;79.20;;;;;;5092783;28;19908;-50
2022/02/04 00:41:16;;;;;;;;;;;23.40;79.40;;;;;;5093067;28;19924;-58
2022/02/04 00:43:44;;;;;;;;;;;23.40;79.60;;;;;;5092651;28;19916;-56
2022/02/04 00:46:18;;;;;;;;;;;23.30;80.10;;;;;;5092839;28;20333;-50
2022/02/04 00:48:54;;;;;;;;;;;23.30;80.30;;;;;;5092866;28;19908;-55
2022/02/04 00:51:38;;;;;;;;;;;23.30;80.50;;;;;;5092651;28;19908;-55
2022/02/04 00:54:27;;;;;;;;;;;23.30;80.60;;;;;;5093160;28;19977;-51
2022/02/04 01:13:16;;;;;;;;;;;23.40;80.60;;;;;;5093102;28;19977;-53
2022/02/04 01:26:45;;;;;;;;;;;23.60;80.10;;;;;;5097127;28;19931;-55
2022/02/04 01:29:12;;;;;;;;;;;23.60;79.80;;;;;;5096629;28;19991;-56
2022/02/04 01:31:39;;;;;;;;;;;23.70;79.70;;;;;;5096810;28;20262;-57
2022/02/04 01:34:06;;;;;;;;;;;23.70;79.40;;;;;;5096392;28;19909;-56
2022/02/04 01:36:32;;;;;;;;;;;23.70;79.50;;;;;;5096819;28;20274;-60
2022/02/04 01:38:59;;;;;;;;;;;23.80;79.70;;;;;;5096790;28;20282;-58
2022/02/04 01:41:26;;;;;;;;;;;23.80;79.40;;;;;;5096855;28;19909;-56
2022/02/04 01:43:52;;;;;;;;;;;23.90;79.30;;;;;;5096299;28;19916;-54
2022/02/04 01:46:19;;;;;;;;;;;23.90;79.20;;;;;;5095068;28;19919;-59
2022/02/04 01:48:46;;;;;;;;;;;23.90;78.90;;;;;;5096137;28;20018;-57
2022/02/04 01:51:13;;;;;;;;;;;24.00;79.00;;;;;;5096607;28;20271;-57
2022/02/04 01:53:41;;;;;;;;;;;24.00;79.00;;;;;;5095860;28;19954;-54
2022/02/04 01:56:08;;;;;;;;;;;24.10;79.60;;;;;;5095921;28;19909;-54
2022/02/04 01:58:36;;;;;;;;;;;24.10;79.30;;;;;;5095966;28;19981;-52
2022/02/04 02:01:03;;;;;;;;;;;24.10;79.00;;;;;;5095829;28;20005;-58
2022/02/04 02:03:30;;;;;;;;;;;24.10;79.20;;;;;;5095675;28;19923;-56
2022/02/04 02:06:02;;;;;;;;;;;24.10;79.10;;;;;;5095896;28;19915;-58
2022/02/04 02:08:29;;;;;;;;;;;24.10;79.20;;;;;;5095775;28;20290;-52
2022/02/04 02:10:55;;;;;;;;;;;24.10;79.30;;;;;;5095706;28;19912;-61
2022/02/04 02:13:38;;;;;;;;;;;24.20;79.30;;;;;;5094749;28;19908;-55
2022/02/04 02:33:26;;;;;;;;;;;24.10;80.70;;;;;;5095319;28;19931;-56
2022/02/04 02:44:11;;;;;;;;;;;24.10;80.40;;;;;;5095005;28;19939;-61
2022/02/04 02:46:52;;;;;;;;;;;24.10;80.40;;;;;;5094583;28;19908;-53
2022/02/04 03:00:14;;;;;;;;;;;24.20;79.90;;;;;;5094827;28;19915;-53
2022/02/04 03:02:42;;;;;;;;;;;24.30;80.00;;;;;;5094663;28;20002;-61
2022/02/04 03:05:09;;;;;;;;;;;24.30;80.10;;;;;;5094217;28;19970;-59
2022/02/04 03:07:35;;;;;;;;;;;24.30;79.90;;;;;;5094979;28;19908;-62
2022/02/04 03:10:02;;;;;;;;;;;24.40;80.10;;;;;;5094337;28;19960;-60
2022/02/04 03:12:31;;;;;;;;;;;24.40;80.20;;;;;;5094336;28;19912;-59
2022/02/04 03:14:59;;;;;;;;;;;24.30;80.10;;;;;;5093954;28;20404;-52
2022/02/04 03:17:26;;;;;;;;;;;24.30;79.90;;;;;;5094886;28;19912;-55
2022/02/04 03:19:57;;;;;;;;;;;24.30;80.10;;;;;;5094491;28;19965;-55
2022/02/04 03:22:24;;;;;;;;;;;24.30;80.30;;;;;;5094064;28;20331;-58
2022/02/04 03:24:58;;;;;;;;;;;24.30;80.50;;;;;;5094726;28;19909;-56
2022/02/04 03:27:33;;;;;;;;;;;24.30;80.70;;;;;;5093162;28;19955;-58
2022/02/04 03:32:26;;;;;;;;;;;24.20;80.90;;;;;;5094560;28;19908;-53
2022/02/04 03:34:53;;;;;;;;;;;24.20;81.30;;;;;;5094426;28;19954;-62
2022/02/04 03:37:20;;;;;;;;;;;24.10;81.60;;;;;;5093965;28;19908;-58
2022/02/04 03:39:46;;;;;;;;;;;24.10;81.70;;;;;;5093502;28;20000;-53
2022/02/04 03:42:13;;;;;;;;;;;24.10;81.90;;;;;;5093052;28;19908;-54
2022/02/04 03:44:40;;;;;;;;;;;24.10;82.00;;;;;;5093458;28;19912;-54
2022/02/04 03:47:07;;;;;;;;;;;24.10;82.20;;;;;;5093171;28;19915;-55
2022/02/04 03:49:33;;;;;;;;;;;24.00;82.30;;;;;;5092211;28;19908;-52
2022/02/04 03:52:00;;;;;;;;;;;24.10;82.40;;;;;;5092997;28;20265;-53
2022/02/04 03:54:27;;;;;;;;;;;24.00;82.50;;;;;;5093431;28;19915;-52
2022/02/04 03:56:53;;;;;;;;;;;24.00;82.70;;;;;;5093230;28;19908;-60
2022/02/04 03:59:22;;;;;;;;;;;23.90;82.70;;;;;;5093125;28;20416;-55
2022/02/04 04:01:49;;;;;;;;;;;23.90;82.70;;;;;;5093073;28;20374;-53
2022/02/04 04:04:15;;;;;;;;;;;23.90;82.70;;;;;;5092984;28;19924;-55
2022/02/04 04:06:42;;;;;;;;;;;23.90;83.20;;;;;;5093442;28;19941;-54
2022/02/04 04:09:09;;;;;;;;;;;23.90;82.60;;;;;;5093434;28;19912;-58
2022/02/04 04:11:42;;;;;;;;;;;23.90;82.50;;;;;;5093995;28;19961;-55
2022/02/04 04:14:08;;;;;;;;;;;23.80;82.60;;;;;;5124481;27;19924;-61
2022/02/04 04:16:35;;;;;;;;;;;23.80;82.60;;;;;;5093542;28;19916;-57
2022/02/04 04:19:02;;;;;;;;;;;23.80;82.70;;;;;;5093749;28;19948;-57
2022/02/04 04:21:29;;;;;;;;;;;23.80;82.70;;;;;;5093063;28;19918;-53
2022/02/04 04:24:00;;;;;;;;;;;23.80;82.80;;;;;;5093072;28;19916;-59
2022/02/04 04:26:27;;;;;;;;;;;23.80;82.80;;;;;;5093293;28;20225;-52
2022/02/04 04:28:53;;;;;;;;;;;23.80;82.80;;;;;;5093078;28;20300;-52
2022/02/04 04:31:20;;;;;;;;;;;23.80;82.80;;;;;;5093145;28;19931;-55
2022/02/04 04:33:47;;;;;;;;;;;23.80;82.80;;;;;;5091757;28;20011;-49
2022/02/04 04:36:14;;;;;;;;;;;23.80;82.80;;;;;;5092560;28;19931;-59
2022/02/04 04:41:23;;;;;;;;;;;23.80;82.80;;;;;;5092423;28;20253;-48
2022/02/04 04:44:17;;;;;;;;;;;23.80;82.60;;;;;;5091893;28;19916;-54
2022/02/04 05:30:26;;;;;;;;;;;24.20;80.30;;;;;;5092250;28;19908;-61
2022/02/04 05:32:52;;;;;;;;;;;24.20;80.10;;;;;;5091977;28;19908;-60
2022/02/04 05:35:20;;;;;;;;;;;24.30;78.10;;;;;;5091707;28;19981;-54
2022/02/04 05:37:49;;;;;;;;;;;24.30;78.80;;;;;;5091686;28;19998;-59
2022/02/04 05:40:19;;;;;;;;;;;24.30;78.40;;;;;;5091626;28;19908;-51
2022/02/04 05:42:53;;;;;;;;;;;24.40;78.90;;;;;;5091900;28;20001;-55
2022/02/04 05:45:23;;;;;;;;;;;24.40;78.40;;;;;;5092071;28;20012;-60
2022/02/04 05:47:56;;;;;;;;;;;24.40;78.30;;;;;;5091984;28;19984;-57
2022/02/04 05:50:43;;;;;;;;;;;24.40;77.90;;;;;;5091699;28;19954;-54
2022/02/04 05:59:08;;;;;;;;;;;24.60;76.80;;;;;;5091762;28;20009;-55
2022/02/04 06:06:39;;;;;;;;;;;24.60;76.20;;;;;;5091172;28;20011;-57
2022/02/04 06:22:39;;;;;;;;;;;24.60;75.90;;;;;;5095396;28;20362;-60
2022/02/04 06:25:08;;;;;;;;;;;24.60;76.20;;;;;;5094638;28;19912;-56
2022/02/04 06:27:36;;;;;;;;;;;24.60;76.20;;;;;;5094487;28;19957;-52
2022/02/04 06:30:04;;;;;;;;;;;24.60;76.50;;;;;;5094408;28;19915;-51
2022/02/04 06:32:31;;;;;;;;;;;24.60;76.50;;;;;;5094545;28;19953;-55
2022/02/04 06:34:59;;;;;;;;;;;24.60;76.40;;;;;;5093209;28;19908;-48
2022/02/04 06:37:26;;;;;;;;;;;24.60;76.30;;;;;;5127338;27;20307;-54
2022/02/04 06:39:53;;;;;;;;;;;24.50;76.40;;;;;;5095476;28;20003;-56
2022/02/04 06:42:21;;;;;;;;;;;24.50;76.50;;;;;;5095571;28;19908;-56
2022/02/04 06:44:48;;;;;;;;;;;24.50;76.70;;;;;;5095595;28;19909;-56
2022/02/04 06:47:14;;;;;;;;;;;24.50;77.20;;;;;;5095275;28;19908;-55
2022/02/04 06:49:42;;;;;;;;;;;24.50;76.40;;;;;;5095416;28;19912;-58
2022/02/04 06:52:09;;;;;;;;;;;24.50;76.40;;;;;;5095219;28;20023;-56
2022/02/04 06:54:36;;;;;;;;;;;24.40;76.60;;;;;;5096034;28;19914;-56
2022/02/04 06:57:03;;;;;;;;;;;24.40;76.50;;;;;;5095505;28;19912;-57
2022/02/04 06:59:30;;;;;;;;;;;24.40;76.60;;;;;;5095386;28;19995;-57
2022/02/04 07:01:57;;;;;;;;;;;24.30;76.60;;;;;;5094945;28;19908;-53
2022/02/04 07:04:27;;;;;;;;;;;24.30;76.60;;;;;;5095168;28;20014;-57
2022/02/04 07:06:57;;;;;;;;;;;24.30;76.70;;;;;;5094939;28;20000;-57
2022/02/04 07:09:34;;;;;;;;;;;24.30;76.70;;;;;;5109925;28;20358;-56
2022/02/04 07:17:30;;;;;;;;;;;24.20;76.50;;;;;;5094817;28;19908;-53
2022/02/04 07:19:57;;;;;;;;;;;24.20;76.80;;;;;;5094551;28;19908;-58
2022/02/04 07:22:27;;;;;;;;;;;24.20;77.00;;;;;;5094929;28;19915;-56
2022/02/04 07:24:59;;;;;;;;;;;24.20;77.20;;;;;;5126786;27;20380;-57
2022/02/04 07:27:30;;;;;;;;;;;24.20;77.40;;;;;;5095136;28;20008;-59
2022/02/04 07:30:00;;;;;;;;;;;24.10;77.30;;;;;;5094290;28;20252;-56
2022/02/04 07:42:55;;;;;;;;;;;24.00;77.30;;;;;;5094205;28;19939;-57
2022/02/04 07:45:22;;;;;;;;;;;24.00;77.50;;;;;;5126878;27;19908;-58
2022/02/04 07:47:49;;;;;;;;;;;24.00;77.60;;;;;;5093999;28;19994;-59
2022/02/04 07:50:21;;;;;;;;;;;23.90;77.50;;;;;;5093801;28;20200;-54
2022/02/04 07:52:51;;;;;;;;;;;23.90;77.50;;;;;;5093488;28;19908;-53
2022/02/04 07:55:18;;;;;;;;;;;23.90;77.70;;;;;;5093675;28;19908;-59
2022/02/04 07:57:45;;;;;;;;;;;23.90;77.60;;;;;;5093608;28;19908;-55
2022/02/04 08:00:15;;;;;;;;;;;23.90;77.80;;;;;;5093444;28;19915;-56
2022/02/04 08:02:43;;;;;;;;;;;23.80;77.60;;;;;;5093218;28;19919;-50
2022/02/04 08:05:17;;;;;;;;;;;23.80;77.40;;;;;;5093241;28;19973;-57
2022/02/04 08:08:16;;;;;;;;;;;23.80;77.50;;;;;;5094264;28;19936;-54
2022/02/04 08:10:40;;;;;;;;;;;23.80;77.20;;;;;;5093449;28;19908;-54
2022/02/04 08:24:11;;;;;;;;;;;23.70;77.20;;;;;;5093246;28;19922;-56
2022/02/04 08:32:29;;;;;;;;;;;23.60;76.90;;;;;;5093445;28;19908;-58
2022/02/04 08:34:44;;;;;;;;;;;23.60;76.80;;;;;;5089173;28;20418;-59
2022/02/04 08:50:44;;;;;;;;;;;23.40;76.30;;;;;;5092450;28;19908;-59
2022/02/04 08:53:45;;;;;;;;;;;23.50;76.30;;;;;;5092569;28;19908;-60
2022/02/04 08:55:59;;;;;;;;;;;23.40;75.90;;;;;;5091913;28;20007;-58
2022/02/04 08:58:36;;;;;;;;;;;23.40;75.90;;;;;;5092337;28;19977;-58
2022/02/04 09:01:24;;;;;;;;;;;23.40;75.20;;;;;;5092432;28;19954;-60
2022/02/04 09:04:03;;;;;;;;;;;23.40;75.30;;;;;;5092314;28;19984;-58
2022/02/04 09:06:37;;;;;;;;;;;23.40;75.40;;;;;;5092392;28;19919;-60
2022/02/04 09:09:05;;;;;;;;;;;23.30;75.60;;;;;;5093367;28;20297;-60
2022/02/04 09:17:05;;;;;;;;;;;23.30;76.80;;;;;;5093626;28;19918;-63
2022/02/04 09:22:21;;;;;;;;;;;23.20;77.90;;;;;;5093970;28;19960;-58
2022/02/04 09:24:48;;;;;;;;;;;23.20;71.50;;;;;;5092010;28;20355;-57
2022/02/04 09:27:15;;;;;;;;;;;23.20;77.10;;;;;;5092039;28;20204;-55
2022/02/04 09:29:45;;;;;;;;;;;23.20;76.00;;;;;;5093454;28;19912;-56
2022/02/04 09:32:11;;;;;;;;;;;23.10;73.50;;;;;;5093160;28;19916;-56
2022/02/04 09:34:38;;;;;;;;;;;23.10;75.30;;;;;;5092867;28;19943;-55
2022/02/04 09:37:05;;;;;;;;;;;23.00;74.80;;;;;;5092531;28;19908;-59
2022/02/04 09:39:33;;;;;;;;;;;23.00;75.20;;;;;;5093662;28;20253;-55
2022/02/04 09:42:00;;;;;;;;;;;23.00;76.60;;;;;;5093070;28;19916;-57
2022/02/04 09:44:26;;;;;;;;;;;22.90;75.20;;;;;;5093122;28;19916;-56
2022/02/04 09:46:56;;;;;;;;;;;22.90;72.00;;;;;;5091898;28;19908;-53
2022/02/04 09:49:29;;;;;;;;;;;22.90;75.00;;;;;;5096181;28;19908;-52
2022/02/04 10:09:29;;;;;;;;;;;22.90;80.60;;;;;;5097157;28;20310;-61
2022/02/04 10:17:23;;;;;;;;;;;22.90;81.40;;;;;;5096658;28;19914;-59
2022/02/04 10:19:54;;;;;;;;;;;22.90;81.70;;;;;;5096369;28;19908;-61
2022/02/04 10:22:22;;;;;;;;;;;22.90;82.00;;;;;;5095049;28;19997;-62
2022/02/04 10:24:56;;;;;;;;;;;22.90;82.50;;;;;;5096181;28;19938;-57
2022/02/04 10:27:23;;;;;;;;;;;22.90;82.50;;;;;;5095822;28;19908;-59
2022/02/04 10:29:53;;;;;;;;;;;22.80;82.70;;;;;;5095422;28;19907;-59
2022/02/04 10:32:31;;;;;;;;;;;22.90;82.90;;;;;;5095843;28;19915;-61
2022/02/04 10:35:03;;;;;;;;;;;22.90;82.90;;;;;;5095726;28;19951;-61
2022/02/04 10:37:36;;;;;;;;;;;22.80;82.90;;;;;;5095843;28;19908;-58
2022/02/04 10:40:30;;;;;;;;;;;22.90;83.10;;;;;;5095683;28;19961;-59
2022/02/04 10:43:12;;;;;;;;;;;22.80;83.10;;;;;;5093218;28;19926;-54
2022/02/04 10:55:58;;;;;;;;;;;22.80;82.40;;;;;;5095243;28;19915;-59
2022/02/04 11:01:12;;;;;;;;;;;22.80;82.40;;;;;;5095871;28;19953;-58
2022/02/04 11:03:45;;;;;;;;;;;22.80;82.60;;;;;;5095312;28;19916;-59
2022/02/04 11:06:33;;;;;;;;;;;22.80;82.50;;;;;;5095465;28;19919;-54
2022/02/04 11:31:14;;;;;;;;;;;22.70;81.20;;;;;;5095365;28;20342;-57
2022/02/04 11:34:04;;;;;;;;;;;22.70;81.20;;;;;;5095649;28;20012;-57
2022/02/04 11:43:47;;;;;;;;;;;22.70;80.60;;;;;;5095790;28;19919;-55
2022/02/04 11:47:54;;;;;;;;;;;22.70;80.40;;;;;;5095354;28;20337;-56
2022/02/04 11:53:27;;;;;;;;;;;22.70;80.20;;;;;;5094630;28;19908;-50
2022/02/04 11:56:03;;;;;;;;;;;22.60;80.00;;;;;;5094259;28;19919;-57
2022/02/04 11:58:49;;;;;;;;;;;22.70;79.90;;;;;;5094770;28;19938;-52
2022/02/04 12:01:17;;;;;;;;;;;22.70;79.60;;;;;;5094521;28;19959;-56
2022/02/04 12:03:44;;;;;;;;;;;22.70;79.50;;;;;;5094108;28;19916;-60
2022/02/04 12:06:27;;;;;;;;;;;22.70;79.30;;;;;;5094489;28;19912;-57
2022/02/04 12:08:53;;;;;;;;;;;22.60;79.30;;;;;;5094143;28;19915;-55
2022/02/04 12:11:38;;;;;;;;;;;22.60;79.10;;;;;;5093778;28;20415;-59
2022/02/04 12:14:07;;;;;;;;;;;22.70;79.00;;;;;;5126829;27;19959;-57
2022/02/04 12:16:34;;;;;;;;;;;22.70;79.00;;;;;;5094479;28;19951;-59
2022/02/04 12:19:08;;;;;;;;;;;22.70;78.80;;;;;;5094157;28;20013;-54
2022/02/04 12:21:45;;;;;;;;;;;22.60;78.70;;;;;;5094149;28;19908;-54
2022/02/04 12:24:30;;;;;;;;;;;22.60;78.60;;;;;;5092279;28;19981;-56
2022/02/04 12:27:14;;;;;;;;;;;22.70;78.60;;;;;;5093764;28;19940;-54
2022/02/04 12:29:41;;;;;;;;;;;22.60;78.40;;;;;;5094215;28;19953;-54
2022/02/04 12:32:08;;;;;;;;;;;22.60;78.20;;;;;;5094233;28;19914;-56
2022/02/04 12:34:36;;;;;;;;;;;22.60;78.10;;;;;;5093878;28;19954;-57
2022/02/04 12:37:04;;;;;;;;;;;22.60;78.00;;;;;;5093889;28;19908;-52
2022/02/04 12:39:32;;;;;;;;;;;22.60;77.90;;;;;;5093470;28;19915;-51
2022/02/04 12:42:00;;;;;;;;;;;22.60;77.90;;;;;;5125531;27;20472;-54
2022/02/04 12:44:28;;;;;;;;;;;22.60;77.70;;;;;;5093328;28;19916;-53
2022/02/04 12:47:00;;;;;;;;;;;22.60;77.70;;;;;;5093397;28;19915;-54
2022/02/04 12:49:28;;;;;;;;;;;22.60;77.60;;;;;;5093115;28;19946;-54
2022/02/04 12:54:43;;;;;;;;;;;22.60;77.40;;;;;;5093727;28;20404;-51
2022/02/04 13:02:36;;;;;;;;;;;22.50;77.10;;;;;;5093763;28;19908;-59
2022/02/04 13:07:58;;;;;;;;;;;22.50;76.90;;;;;;5093416;28;19931;-54
2022/02/04 13:10:26;;;;;;;;;;;22.50;76.90;;;;;;5093241;28;19968;-50
2022/02/04 13:12:54;;;;;;;;;;;22.50;76.80;;;;;;5091907;28;19915;-60
2022/02/04 13:15:21;;;;;;;;;;;22.60;77.40;;;;;;5092842;28;19926;-55
2022/02/04 13:17:48;;;;;;;;;;;22.50;76.60;;;;;;5092753;28;19908;-56
2022/02/04 13:20:21;;;;;;;;;;;22.50;76.50;;;;;;5092684;28;19940;-53
2022/02/04 13:22:49;;;;;;;;;;;22.50;76.50;;;;;;5096893;28;19913;-57
2022/02/04 13:25:18;;;;;;;;;;;22.50;76.40;;;;;;5097095;28;19981;-56
2022/02/04 13:28:15;;;;;;;;;;;22.50;76.40;;;;;;5097324;28;19952;-56
2022/02/04 13:30:42;;;;;;;;;;;22.50;76.20;;;;;;5092239;28;19908;-60
2022/02/04 13:33:15;;;;;;;;;;;22.50;76.20;;;;;;5096909;28;19912;-56
2022/02/04 13:35:43;;;;;;;;;;;22.50;76.10;;;;;;5097166;28;19908;-59
2022/02/04 13:38:22;;;;;;;;;;;22.50;76.10;;;;;;5096600;28;20003;-59
2022/02/04 13:41:00;;;;;;;;;;;22.50;76.10;;;;;;5096888;28;19912;-60
2022/02/04 13:43:36;;;;;;;;;;;22.50;76.00;;;;;;5096809;28;20276;-53
2022/02/04 13:46:31;;;;;;;;;;;22.40;75.90;;;;;;5096507;28;19908;-59
2022/02/04 13:48:59;;;;;;;;;;;22.50;76.50;;;;;;5096002;28;20381;-56
2022/02/04 13:51:47;;;;;;;;;;;22.50;75.80;;;;;;5096559;28;19919;-60
2022/02/04 13:54:26;;;;;;;;;;;22.50;75.80;;;;;;5096022;28;20347;-56
2022/02/04 13:57:40;;;;;;;;;;;22.50;75.70;;;;;;5096711;28;20026;-60
2022/02/04 14:02:52;;;;;;;;;;;22.50;75.60;;;;;;5096276;28;19908;-59
2022/02/04 14:05:31;;;;;;;;;;;22.50;75.50;;;;;;5096650;28;19916;-61
2022/02/04 14:08:05;;;;;;;;;;;22.50;75.50;;;;;;5096132;28;19998;-53
2022/02/04 14:10:42;;;;;;;;;;;22.40;75.40;;;;;;5096294;28;19915;-59
2022/02/04 14:13:10;;;;;;;;;;;22.40;75.40;;;;;;5096058;28;19982;-59
2022/02/04 14:15:37;;;;;;;;;;;22.40;75.30;;;;;;5095879;28;20389;-56
2022/02/04 14:18:09;;;;;;;;;;;22.40;75.20;;;;;;5095733;28;20026;-54
2022/02/04 14:20:37;;;;;;;;;;;22.40;75.20;;;;;;5094886;28;20370;-55
2022/02/04 14:23:08;;;;;;;;;;;22.40;75.10;;;;;;5096110;28;19919;-57
2022/02/04 14:25:46;;;;;;;;;;;22.50;75.10;;;;;;5096078;28;19909;-57
2022/02/04 14:28:16;;;;;;;;;;;22.40;75.10;;;;;;5095600;28;20410;-54
2022/02/04 14:30:43;;;;;;;;;;;22.40;75.10;;;;;;5096015;28;19908;-55
2022/02/04 14:33:16;;;;;;;;;;;22.40;75.00;;;;;;5094795;28;19908;-58
2022/02/04 14:49:20;;;;;;;;;;;22.40;74.90;;;;;;5095660;28;20007;-56
2022/02/04 14:52:42;;;;;;;;;;;22.40;74.80;;;;;;5073307;28;20351;-60
2022/02/04 15:00:55;;;;;;;;;;;22.40;74.70;;;;;;5096091;28;19961;-59
2022/02/04 15:03:33;;;;;;;;;;;22.40;74.70;;;;;;5095583;28;19986;-60
2022/02/04 15:06:05;;;;;;;;;;;22.40;74.70;;;;;;5095101;28;19908;-53
2022/02/04 15:08:35;;;;;;;;;;;22.40;74.70;;;;;;5095351;28;20006;-56
2022/02/04 15:11:04;;;;;;;;;;;22.40;74.70;;;;;;5095282;28;19908;-56
2022/02/04 15:13:32;;;;;;;;;;;22.40;74.60;;;;;;5094929;28;19908;-57
2022/02/04 15:16:06;;;;;;;;;;;22.40;74.60;;;;;;5094686;28;19920;-61
2022/02/04 15:18:34;;;;;;;;;;;22.40;74.60;;;;;;5094939;28;19912;-59
2022/02/04 15:21:01;;;;;;;;;;;22.40;74.50;;;;;;5095224;28;19908;-57
2022/02/04 15:23:28;;;;;;;;;;;22.40;74.50;;;;;;5094967;28;19920;-54
2022/02/04 15:25:56;;;;;;;;;;;22.40;74.40;;;;;;5094840;28;19926;-52
2022/02/04 15:30:53;;;;;;;;;;;22.40;74.40;;;;;;5094747;28;20444;-60
2022/02/04 15:33:21;;;;;;;;;;;22.40;74.40;;;;;;5094302;28;19915;-60
2022/02/04 15:35:47;;;;;;;;;;;22.40;74.50;;;;;;5094674;28;19915;-60
2022/02/04 15:38:14;;;;;;;;;;;22.40;74.40;;;;;;5094381;28;19949;-60
2022/02/04 15:40:45;;;;;;;;;;;22.40;74.50;;;;;;5094866;28;19908;-59
2022/02/04 15:43:13;;;;;;;;;;;22.40;74.50;;;;;;5094257;28;19916;-55
2022/02/04 15:48:38;;;;;;;;;;;22.40;74.50;;;;;;5094092;28;19915;-60
2022/02/04 15:51:30;;;;;;;;;;;22.30;74.50;;;;;;5092933;28;19908;-57
2022/02/04 15:54:24;;;;;;;;;;;22.30;74.50;;;;;;5094180;28;19908;-52
2022/02/04 16:02:01;;;;;;;;;;;22.30;74.70;;;;;;5094481;28;19999;-58
2022/02/04 16:04:30;;;;;;;;;;;22.30;74.80;;;;;;5093893;28;20019;-54
2022/02/04 16:06:57;;;;;;;;;;;22.30;74.80;;;;;;5094043;28;20280;-61
2022/02/04 16:09:25;;;;;;;;;;;22.30;75.00;;;;;;5094176;28;20453;-60
2022/02/04 16:12:21;;;;;;;;;;;22.30;75.00;;;;;;5093843;28;19919;-56
2022/02/04 16:15:03;;;;;;;;;;;22.30;75.10;;;;;;5093858;28;20329;-58
2022/02/04 16:17:39;;;;;;;;;;;22.20;75.20;;;;;;5093735;28;20400;-59
2022/02/04 16:20:23;;;;;;;;;;;22.20;75.40;;;;;;5093884;28;19915;-57
2022/02/04 16:23:02;;;;;;;;;;;22.20;75.50;;;;;;5093896;28;19912;-60
2022/02/04 16:25:34;;;;;;;;;;;22.20;75.60;;;;;;5093788;28;19916;-59
2022/02/04 16:30:47;;;;;;;;;;;22.10;76.00;;;;;;5094133;28;20011;-54
2022/02/04 16:33:14;;;;;;;;;;;22.10;76.20;;;;;;5093388;28;20316;-56
2022/02/04 16:35:41;;;;;;;;;;;22.10;76.40;;;;;;5093470;28;19908;-54
2022/02/04 16:38:10;;;;;;;;;;;22.10;76.60;;;;;;5093245;28;19908;-57
2022/02/04 16:40:42;;;;;;;;;;;22.00;76.60;;;;;;5093355;28;19970;-60
2022/02/04 16:43:09;;;;;;;;;;;22.00;76.90;;;;;;5093324;28;19920;-53
2022/02/04 16:45:35;;;;;;;;;;;22.00;77.10;;;;;;5093277;28;20011;-56
2022/02/04 16:48:02;;;;;;;;;;;22.00;77.20;;;;;;5093139;28;19908;-54
2022/02/04 16:50:29;;;;;;;;;;;22.00;77.40;;;;;;5093211;28;19947;-53
2022/02/04 16:52:56;;;;;;;;;;;21.90;77.50;;;;;;5093302;28;19908;-49
2022/02/04 16:55:22;;;;;;;;;;;21.90;77.50;;;;;;5092685;28;19963;-52
2022/02/04 16:57:49;;;;;;;;;;;21.90;77.70;;;;;;5093425;28;19999;-57
2022/02/04 17:00:26;;;;;;;;;;;21.90;77.80;;;;;;5093335;28;19908;-57
2022/02/04 17:02:55;;;;;;;;;;;21.80;77.80;;;;;;5092997;28;20359;-59
2022/02/04 17:05:25;;;;;;;;;;;21.80;77.90;;;;;;5093019;28;19912;-56
2022/02/04 17:07:57;;;;;;;;;;;21.80;78.00;;;;;;5092683;28;19908;-51
2022/02/04 17:10:30;;;;;;;;;;;21.80;78.20;;;;;;5093095;28;19920;-59
2022/02/04 17:13:00;;;;;;;;;;;21.80;78.30;;;;;;5093227;28;20006;-53
2022/02/04 17:15:31;;;;;;;;;;;21.80;78.40;;;;;;5092884;28;20273;-59
2022/02/04 17:17:58;;;;;;;;;;;21.80;78.40;;;;;;5092663;28;19908;-60
2022/02/04 17:20:25;;;;;;;;;;;21.80;78.40;;;;;;5092984;28;20370;-59
2022/02/04 17:22:53;;;;;;;;;;;21.80;78.50;;;;;;5092923;28;20346;-56
2022/02/04 17:25:26;;;;;;;;;;;21.80;78.50;;;;;;5093124;28;19916;-56
2022/02/04 17:27:54;;;;;;;;;;;21.80;78.40;;;;;;5092991;28;20358;-58
2022/02/04 17:30:21;;;;;;;;;;;21.80;78.40;;;;;;5092632;28;19942;-53
2022/02/04 17:32:51;;;;;;;;;;;21.80;78.30;;;;;;5092787;28;19915;-56
2022/02/04 17:35:19;;;;;;;;;;;21.80;78.30;;;;;;5092788;28;19908;-57
2022/02/04 17:37:46;;;;;;;;;;;21.80;78.30;;;;;;5092763;28;19908;-57
2022/02/04 17:40:14;;;;;;;;;;;21.90;78.40;;;;;;5092833;28;19908;-57
2022/02/04 17:42:41;;;;;;;;;;;21.90;78.40;;;;;;5092819;28;20004;-58
2022/02/04 17:45:11;;;;;;;;;;;21.80;78.30;;;;;;5092762;28;19916;-57
2022/02/04 17:47:39;;;;;;;;;;;21.80;78.30;;;;;;5091872;28;19944;-55
2022/02/04 17:50:18;;;;;;;;;;;21.80;78.40;;;;;;5092840;28;19908;-49
2022/02/04 17:52:51;;;;;;;;;;;21.90;78.50;;;;;;5093044;28;20007;-51
2022/02/04 17:55:26;;;;;;;;;;;21.80;78.40;;;;;;5092736;28;19908;-56
2022/02/04 17:58:08;;;;;;;;;;;21.80;78.40;;;;;;5092602;28;19908;-56
2022/02/04 18:06:09;;;;;;;;;;;21.90;78.40;;;;;;5092532;28;19908;-57
2022/02/04 18:08:35;;;;;;;;;;;21.80;78.30;;;;;;5094819;28;19912;-55
2022/02/04 18:11:03;;;;;;;;;;;21.80;78.30;;;;;;5096701;28;19936;-56
2022/02/04 18:13:31;;;;;;;;;;;21.80;78.30;;;;;;5096513;28;19912;-53
2022/02/04 18:15:59;;;;;;;;;;;21.80;78.30;;;;;;5096058;28;19920;-56
2022/02/04 18:18:27;;;;;;;;;;;21.80;78.30;;;;;;5096185;28;20641;-52
2022/02/04 18:20:54;;;;;;;;;;;21.80;78.30;;;;;;5096615;28;20424;-53
2022/02/04 18:23:20;;;;;;;;;;;21.80;78.30;;;;;;5096106;28;19920;-53
2022/02/04 18:25:48;;;;;;;;;;;21.80;78.30;;;;;;5096372;28;19908;-53
2022/02/04 18:28:14;;;;;;;;;;;21.80;78.30;;;;;;5095950;28;19920;-54
2022/02/04 18:30:41;;;;;;;;;;;21.80;78.30;;;;;;5095986;28;19965;-58
2022/02/04 18:33:08;;;;;;;;;;;21.80;78.20;;;;;;5095682;28;20427;-53
2022/02/04 18:35:35;;;;;;;;;;;21.80;78.30;;;;;;5095769;28;20007;-58
2022/02/04 18:38:14;;;;;;;;;;;21.80;78.20;;;;;;5095300;28;19908;-57
2022/02/04 18:41:07;;;;;;;;;;;21.80;78.20;;;;;;5095550;28;19908;-58
2022/02/04 18:43:52;;;;;;;;;;;21.80;78.20;;;;;;5095282;28;19923;-60
2022/02/04 18:46:50;;;;;;;;;;;21.80;78.20;;;;;;5095376;28;19907;-53
2022/02/04 18:49:28;;;;;;;;;;;21.80;78.20;;;;;;5095435;28;19908;-50
2022/02/04 18:52:05;;;;;;;;;;;21.80;78.20;;;;;;5095262;28;19915;-58
2022/02/04 18:59:39;;;;;;;;;;;21.80;78.10;;;;;;5095393;28;20383;-57
2022/02/04 19:02:06;;;;;;;;;;;21.80;78.20;;;;;;5094830;28;19991;-55
2022/02/04 19:04:39;;;;;;;;;;;21.80;78.10;;;;;;5093699;28;19967;-58
2022/02/04 19:07:12;;;;;;;;;;;21.80;78.10;;;;;;5094987;28;19908;-58
2022/02/04 19:09:41;;;;;;;;;;;21.80;78.10;;;;;;5095156;28;19912;-59
2022/02/04 19:12:13;;;;;;;;;;;21.80;78.10;;;;;;5095062;28;20003;-58
2022/02/04 19:14:50;;;;;;;;;;;21.70;78.00;;;;;;5094823;28;19974;-60
2022/02/04 19:17:31;;;;;;;;;;;21.80;78.00;;;;;;5093572;28;19915;-57
2022/02/04 19:20:06;;;;;;;;;;;21.70;77.90;;;;;;5094169;28;19908;-59
2022/02/04 19:22:36;;;;;;;;;;;21.70;77.90;;;;;;5095186;28;20007;-56
2022/02/04 19:25:06;;;;;;;;;;;21.70;77.90;;;;;;5094771;28;20267;-59
2022/02/04 19:27:33;;;;;;;;;;;21.70;77.90;;;;;;5094676;28;19908;-53
2022/02/04 19:30:01;;;;;;;;;;;21.70;77.90;;;;;;5093161;28;19912;-54
2022/02/04 19:32:28;;;;;;;;;;;21.70;77.80;;;;;;5094201;28;19953;-56
2022/02/04 19:34:55;;;;;;;;;;;21.70;77.80;;;;;;5094555;28;20259;-56
2022/02/04 19:37:23;;;;;;;;;;;21.70;77.80;;;;;;5094301;28;20282;-53
2022/02/04 19:39:50;;;;;;;;;;;21.70;77.80;;;;;;5094628;28;19909;-51
2022/02/04 19:42:32;;;;;;;;;;;21.70;77.70;;;;;;5094311;28;20374;-57
2022/02/04 19:45:08;;;;;;;;;;;21.70;77.70;;;;;;5094043;28;19932;-56
2022/02/04 19:47:44;;;;;;;;;;;21.70;77.70;;;;;;5094100;28;19908;-54
2022/02/04 19:50:42;;;;;;;;;;;21.70;77.60;;;;;;5094055;28;20362;-56
2022/02/04 20:25:07;;;;;;;;;;;21.80;77.20;;;;;;5094383;28;19923;-56
2022/02/04 20:27:39;;;;;;;;;;;21.70;77.10;;;;;;5093705;28;20278;-58
2022/02/04 20:30:06;;;;;;;;;;;21.70;77.10;;;;;;5092773;28;20346;-56
2022/02/04 20:32:33;;;;;;;;;;;21.70;77.10;;;;;;5093266;28;19916;-56
2022/02/04 20:34:59;;;;;;;;;;;21.70;77.10;;;;;;5093337;28;19947;-60
2022/02/04 20:37:26;;;;;;;;;;;21.70;77.10;;;;;;5093616;28;20370;-54
2022/02/04 20:40:03;;;;;;;;;;;21.80;77.10;;;;;;5093179;28;19915;-58
2022/02/04 20:42:30;;;;;;;;;;;21.80;77.10;;;;;;5093760;28;20007;-57
2022/02/04 20:44:57;;;;;;;;;;;21.80;77.00;;;;;;5093713;28;20014;-58
2022/02/04 20:47:24;;;;;;;;;;;21.80;76.90;;;;;;5093519;28;20300;-57
2022/02/04 20:49:52;;;;;;;;;;;21.80;76.90;;;;;;5093896;28;19970;-58
2022/02/04 20:52:20;;;;;;;;;;;21.80;76.90;;;;;;5092943;28;20371;-58
2022/02/04 20:54:47;;;;;;;;;;;21.80;76.90;;;;;;5093209;28;19912;-58